Time;durP1;ratioP1;P1;durP2;ratioP2;P2;SDS_P1;SDS_P2;PMS_P1;PMS_P2;Temp;Humidity;BMP_temperature;BMP_pressure;BME280_temperature;BME280_humidity;BME280_pressure;Samples;Min_cycle;Max_cycle;Signal;HPM_P1;HPM_P2
2023/07/27 00:01:15;;;;;;;4.90;4.60;;;;;;;20.21;100.00;98506.31;104533;1264;59711;-47
2023/07/27 00:03:42;;;;;;;5.80;5.20;;;;;;;20.19;100.00;98504.41;106686;1264;72462;-47
2023/07/27 00:06:10;;;;;;;5.30;4.80;;;;;;;20.14;100.00;98497.68;104541;1264;69254;-48
2023/07/27 00:08:37;;;;;;;3.80;3.60;;;;;;;20.06;100.00;98489.18;104459;1269;72897;-46
2023/07/27 00:11:04;;;;;;;4.70;4.30;;;;;;;20.00;100.00;98482.71;104411;1264;60734;-47
2023/07/27 00:13:32;;;;;;;5.80;5.40;;;;;;;19.96;100.00;98479.91;104601;1264;59988;-46
2023/07/27 00:15:59;;;;;;;6.30;5.80;;;;;;;19.92;100.00;98483.02;104634;1270;73011;-47
2023/07/27 00:18:27;;;;;;;10.80;6.10;;;;;;;19.88;100.00;98484.90;104505;1264;69170;-47
2023/07/27 00:20:54;;;;;;;6.90;6.40;;;;;;;19.86;100.00;98475.73;104572;1270;72444;-46
2023/07/27 00:23:21;;;;;;;10.70;7.70;;;;;;;19.84;100.00;98467.66;104441;1264;63958;-48
2023/07/27 00:25:49;;;;;;;8.30;7.60;;;;;;;19.84;100.00;98458.41;104466;1264;59745;-47
2023/07/27 00:28:16;;;;;;;7.90;7.20;;;;;;;19.83;100.00;98462.70;104440;1269;73970;-47
2023/07/27 00:30:44;;;;;;;8.20;7.20;;;;;;;19.81;100.00;98467.66;104522;1263;69771;-48
2023/07/27 00:33:11;;;;;;;9.30;8.60;;;;;;;19.80;100.00;98461.98;104515;1267;73521;-47
2023/07/27 00:35:38;;;;;;;9.70;8.90;;;;;;;19.79;100.00;98463.03;104838;1267;60715;-47
2023/07/27 00:38:06;;;;;;;8.70;7.90;;;;;;;19.77;100.00;98453.13;104640;1269;59739;-47
2023/07/27 00:40:33;;;;;;;9.10;8.40;;;;;;;19.76;100.00;98442.36;104719;1264;71828;-47
2023/07/27 00:43:01;;;;;;;8.30;7.80;;;;;;;19.75;100.00;98429.70;104389;1263;67654;-48
2023/07/27 00:45:28;;;;;;;10.50;9.00;;;;;;;19.72;100.00;98419.88;104694;1270;71802;-47
2023/07/27 00:47:56;;;;;;;10.20;9.40;;;;;;;19.70;100.00;98421.88;104897;1267;60408;-47
2023/07/27 00:50:23;;;;;;;9.00;8.20;;;;;;;19.70;100.00;98426.24;104721;1266;59679;-46
2023/07/27 00:52:51;;;;;;;10.80;9.90;;;;;;;19.71;100.00;98437.13;104866;1266;73411;-47
2023/07/27 00:55:19;;;;;;;10.70;9.80;;;;;;;19.71;100.00;98444.71;104756;1260;67708;-48
2023/07/27 00:57:46;;;;;;;10.60;9.40;;;;;;;19.73;100.00;98450.48;104639;1262;73132;-47
2023/07/27 01:00:14;;;;;;;10.20;9.40;;;;;;;19.75;100.00;98445.98;104736;1260;62191;-47
2023/07/27 01:02:42;;;;;;;10.60;9.60;;;;;;;19.77;100.00;98440.11;104769;1261;60541;-47
2023/07/27 01:05:10;;;;;;;10.80;9.70;;;;;;;19.78;100.00;98431.57;104863;1260;73035;-47
2023/07/27 01:07:37;;;;;;;13.50;11.30;;;;;;;19.81;100.00;98439.14;104710;1260;67938;-47
2023/07/27 01:10:05;;;;;;;11.00;10.00;;;;;;;19.82;100.00;98444.87;104826;1263;72669;-48
2023/07/27 01:12:40;;;;;;;10.70;9.60;;;;;;;19.82;100.00;98454.23;104987;1261;59807;-48
2023/07/27 01:15:11;;;;;;;10.80;9.90;;;;;;;19.84;100.00;98458.44;104835;1261;60109;-47
2023/07/27 01:17:49;;;;;;;10.20;9.40;;;;;;;19.85;100.00;98455.59;104817;1260;72970;-49
2023/07/27 01:20:23;;;;;;;11.10;10.20;;;;;;;19.86;100.00;98449.86;104774;1267;66462;-47
2023/07/27 01:23:09;;;;;;;10.50;9.50;;;;;;;19.87;100.00;98451.69;105516;1265;71346;-48
2023/07/27 01:26:05;;;;;;;11.50;10.60;;;;;;;19.90;100.00;98451.98;104739;1261;61145;-48
2023/07/27 01:29:03;;;;;;;12.40;10.10;;;;;;;19.93;100.00;98458.79;104689;1261;59965;-48
2023/07/27 01:31:41;;;;;;;10.50;9.50;;;;;;;19.94;100.00;98458.56;106883;1261;72992;-48
2023/07/27 01:34:17;;;;;;;9.00;8.40;;;;;;;19.95;100.00;98447.00;105104;1260;67763;-48
2023/07/27 01:36:47;;;;;;;8.80;7.90;;;;;;;19.93;100.00;98437.25;104869;1261;72493;-48
2023/07/27 01:39:15;;;;;;;9.40;8.60;;;;;;;19.90;100.00;98433.15;105239;1264;60460;-47
2023/07/27 01:41:43;;;;;;;8.30;7.70;;;;;;;19.89;100.00;98423.84;105667;1266;59553;-48
2023/07/27 01:44:10;;;;;;;7.90;7.40;;;;;;;19.87;100.00;98416.24;104751;1260;72123;-47
2023/07/27 01:46:39;;;;;;;7.70;7.10;;;;;;;19.85;100.00;98412.61;104648;1267;67412;-48
2023/07/27 01:49:06;;;;;;;7.60;7.10;;;;;;;19.85;100.00;98413.73;104635;1263;71330;-47
2023/07/27 01:51:35;;;;;;;7.80;7.30;;;;;;;19.85;100.00;98409.17;105669;1260;61650;-47
2023/07/27 01:54:02;;;;;;;8.50;7.80;;;;;;;19.85;100.00;98401.14;104644;1261;60029;-47
2023/07/27 01:56:30;;;;;;;8.80;8.00;;;;;;;19.83;100.00;98398.67;104565;1261;73039;-46
2023/07/27 01:58:58;;;;;;;9.50;8.80;;;;;;;19.81;100.00;98392.37;104874;1263;66626;-46
2023/07/27 02:01:26;;;;;;;9.70;8.90;;;;;;;19.79;100.00;98381.09;104875;1257;71795;-49
2023/07/27 02:03:54;;;;;;;10.00;9.20;;;;;;;19.76;100.00;98376.81;108547;1259;61636;-47
2023/07/27 02:06:21;;;;;;;8.40;7.70;;;;;;;19.76;100.00;98371.55;108585;1256;58901;-46
2023/07/27 02:08:48;;;;;;;8.00;7.30;;;;;;;19.75;100.00;98364.78;108714;1257;73391;-47
2023/07/27 02:11:16;;;;;;;9.80;9.10;;;;;;;19.76;100.00;98364.34;108652;1260;67559;-48
2023/07/27 02:13:47;;;;;;;8.80;8.20;;;;;;;19.75;100.00;98371.70;108687;1257;74793;-48
2023/07/27 02:16:26;;;;;;;8.80;8.10;;;;;;;19.72;100.00;98376.16;108652;1259;61781;-47
2023/07/27 02:18:53;;;;;;;8.70;8.00;;;;;;;19.71;100.00;98368.81;108710;1257;58774;-47
2023/07/27 02:21:21;;;;;;;9.20;8.60;;;;;;;19.71;100.00;98355.73;108521;1257;73510;-46
2023/07/27 02:23:49;;;;;;;9.40;8.40;;;;;;;19.70;100.00;98342.05;108658;1257;66327;-47
2023/07/27 02:26:17;;;;;;;8.10;7.10;;;;;;;19.65;100.00;98329.27;108687;1257;72778;-47
2023/07/27 02:28:44;;;;;;;7.90;7.30;;;;;;;19.59;100.00;98305.91;108536;1256;60375;-46
2023/07/27 02:31:12;;;;;;;8.00;7.20;;;;;;;19.55;100.00;98286.70;108601;1262;58862;-48
2023/07/27 02:33:39;;;;;;;6.50;6.00;;;;;;;19.52;100.00;98276.86;108620;1257;72937;-48
2023/07/27 02:36:07;;;;;;;6.30;5.90;;;;;;;19.46;100.00;98273.81;104801;1257;68117;-47
2023/07/27 02:38:35;;;;;;;7.00;6.60;;;;;;;19.44;100.00;98294.23;104800;1257;72444;-48
2023/07/27 02:41:03;;;;;;;6.30;5.80;;;;;;;19.44;100.00;98334.01;104644;1257;61091;-45
2023/07/27 02:43:30;;;;;;;6.50;6.10;;;;;;;19.47;100.00;98382.57;104239;1257;60057;-46
2023/07/27 02:45:59;;;;;;;6.10;5.80;;;;;;;19.50;100.00;98402.26;104347;1257;71761;-46
2023/07/27 02:48:27;;;;;;;6.70;6.30;;;;;;;19.52;100.00;98401.04;105442;1260;66642;-47
2023/07/27 02:50:54;;;;;;;6.80;6.20;;;;;;;19.55;100.00;98391.16;104721;1262;72533;-48
2023/07/27 02:53:22;;;;;;;5.60;5.30;;;;;;;19.57;100.00;98380.86;105096;1258;61625;-47
2023/07/27 02:56:02;;;;;;;9.00;6.10;;;;;;;19.60;100.00;98361.02;104662;1262;59713;-45
2023/07/27 02:58:41;;;;;;;6.30;5.80;;;;;;;19.64;100.00;98350.60;104783;1259;71742;-46
2023/07/27 03:01:09;;;;;;;7.20;5.70;;;;;;;19.66;100.00;98353.33;104785;1260;66295;-48
2023/07/27 03:03:36;;;;;;;6.50;5.90;;;;;;;19.68;100.00;98366.40;104724;1263;72400;-48
2023/07/27 03:06:07;;;;;;;5.60;5.20;;;;;;;19.71;100.00;98381.98;105551;1257;60400;-48
2023/07/27 03:08:34;;;;;;;7.50;7.00;;;;;;;19.73;100.00;98383.56;105232;1261;60077;-46
2023/07/27 03:11:02;;;;;;;6.60;6.20;;;;;;;19.75;100.00;98362.37;105049;1259;71806;-46
2023/07/27 03:13:30;;;;;;;6.90;6.50;;;;;;;19.78;100.00;98366.14;104691;1260;66495;-48
2023/07/27 03:15:59;;;;;;;6.00;5.60;;;;;;;19.78;100.00;98390.23;104356;1263;71431;-47
2023/07/27 03:18:27;;;;;;;6.10;5.70;;;;;;;19.80;100.00;98420.48;104375;1256;61569;-48
2023/07/27 03:20:55;;;;;;;6.10;5.70;;;;;;;19.82;100.00;98447.25;104819;1261;60459;-46
2023/07/27 03:23:22;;;;;;;6.60;6.30;;;;;;;19.83;100.00;98449.32;104371;1263;74334;-48
2023/07/27 03:25:50;;;;;;;6.30;6.00;;;;;;;19.84;100.00;98443.18;104489;1258;67611;-48
2023/07/27 03:28:17;;;;;;;6.50;6.20;;;;;;;19.85;100.00;98440.50;104886;1257;70721;-48
2023/07/27 03:30:45;;;;;;;7.10;6.60;;;;;;;19.86;100.00;98440.16;104964;1261;63463;-48
2023/07/27 03:33:14;;;;;;;7.00;6.50;;;;;;;19.88;100.00;98441.64;105367;1256;60633;-48
2023/07/27 03:35:41;;;;;;;6.10;5.70;;;;;;;19.90;100.00;98438.98;104457;1260;73818;-47
2023/07/27 03:38:09;;;;;;;7.80;7.30;;;;;;;19.91;100.00;98435.67;105449;1257;66533;-47
2023/07/27 03:40:36;;;;;;;6.80;6.20;;;;;;;19.92;100.00;98434.23;104556;1262;72413;-47
2023/07/27 03:43:04;;;;;;;12.50;7.50;;;;;;;19.93;100.00;98426.13;104704;1257;61802;-48
2023/07/27 03:45:32;;;;;;;7.10;6.60;;;;;;;19.95;100.00;98414.60;104633;1257;60460;-47
2023/07/27 03:47:59;;;;;;;6.70;6.40;;;;;;;19.96;100.00;98404.30;104801;1261;73778;-46
2023/07/27 03:50:27;;;;;;;7.40;6.70;;;;;;;19.98;100.00;98400.66;105310;1254;66579;-47
2023/07/27 03:52:56;;;;;;;7.70;7.30;;;;;;;20.00;100.00;98395.73;104795;1253;71763;-47
2023/07/27 03:55:23;;;;;;;6.30;5.80;;;;;;;20.01;100.00;98394.30;104588;1254;60435;-49
2023/07/27 03:57:51;;;;;;;7.10;6.60;;;;;;;20.03;100.00;98389.36;104449;1253;60654;-47
2023/07/27 04:00:19;;;;;;;7.00;6.40;;;;;;;20.04;100.00;98381.45;104692;1254;72550;-46
2023/07/27 04:02:46;;;;;;;6.10;5.70;;;;;;;20.04;100.00;98373.77;104862;1254;67717;-47
2023/07/27 04:05:14;;;;;;;6.90;6.40;;;;;;;20.04;100.00;98366.33;105547;1253;71207;-45
2023/07/27 04:07:41;;;;;;;7.30;6.60;;;;;;;20.04;100.00;98357.95;104592;1256;62613;-48
2023/07/27 04:10:09;;;;;;;7.20;6.60;;;;;;;20.04;100.00;98357.61;104664;1253;60581;-47
2023/07/27 04:12:36;;;;;;;6.60;6.10;;;;;;;20.04;100.00;98367.41;105220;1254;73918;-48
2023/07/27 04:15:05;;;;;;;7.70;7.20;;;;;;;20.05;100.00;98373.39;104254;1253;68060;-48
2023/07/27 04:17:32;;;;;;;7.10;6.70;;;;;;;20.05;100.00;98378.28;105343;1254;73209;-46
2023/07/27 04:20:00;;;;;;;7.90;7.40;;;;;;;20.06;100.00;98380.09;105296;1254;60465;-46
2023/07/27 04:22:27;;;;;;;8.10;7.60;;;;;;;20.08;100.00;98383.20;105200;1254;61122;-46
2023/07/27 04:24:55;;;;;;;9.20;8.20;;;;;;;20.09;100.00;98386.13;104350;1253;72624;-47
2023/07/27 04:27:22;;;;;;;8.50;7.90;;;;;;;20.11;100.00;98393.30;104448;1257;66302;-46
2023/07/27 04:29:49;;;;;;;8.30;7.70;;;;;;;20.11;100.00;98394.16;105292;1257;72661;-45
2023/07/27 04:32:17;;;;;;;8.50;7.90;;;;;;;20.12;100.00;98394.61;104826;1256;60897;-47
2023/07/27 04:34:44;;;;;;;8.00;7.50;;;;;;;20.12;100.00;98393.45;104385;1254;60694;-48
2023/07/27 04:37:12;;;;;;;7.70;6.90;;;;;;;20.12;100.00;98395.48;107839;1253;73346;-47
2023/07/27 04:39:39;;;;;;;7.90;5.90;;;;;;;20.12;100.00;98393.34;104408;1254;66371;-46
2023/07/27 04:42:07;;;;;;;7.70;5.80;;;;;;;20.11;100.00;98389.00;104384;1254;72743;-48
2023/07/27 04:44:35;;;;;;;5.00;4.00;;;;;;;20.11;100.00;98381.18;105036;1254;61751;-46
2023/07/27 04:47:02;;;;;;;3.60;3.40;;;;;;;20.10;100.00;98363.48;104861;1254;60690;-46
2023/07/27 04:49:31;;;;;;;3.10;3.00;;;;;;;20.10;100.00;98357.99;104648;1254;74577;-48
2023/07/27 04:51:58;;;;;;;3.10;3.00;;;;;;;20.10;100.00;98366.77;104860;1254;66746;-46
2023/07/27 04:54:27;;;;;;;2.50;2.40;;;;;;;20.11;100.00;98375.04;104425;1252;72702;-46
2023/07/27 04:56:54;;;;;;;3.50;2.70;;;;;;;20.12;100.00;98369.65;104391;1253;60857;-45
2023/07/27 04:59:22;;;;;;;3.00;2.80;;;;;;;20.14;100.00;98362.39;104930;1253;62986;-44
2023/07/27 05:01:49;;;;;;;2.90;2.80;;;;;;;20.14;100.00;98359.94;104768;1253;73799;-46
2023/07/27 05:04:17;;;;;;;2.70;2.50;;;;;;;20.15;100.00;98353.23;104781;1254;68244;-45
2023/07/27 05:06:45;;;;;;;2.60;2.20;;;;;;;20.18;100.00;98348.07;109001;1253;72922;-47
2023/07/27 05:09:12;;;;;;;2.60;2.50;;;;;;;20.19;100.00;98338.96;109012;1254;62154;-47
2023/07/27 05:11:40;;;;;;;2.90;2.80;;;;;;;20.21;100.00;98324.52;108997;1253;58737;-45
2023/07/27 05:14:07;;;;;;;4.30;2.50;;;;;;;20.22;100.00;98314.96;109192;1254;74010;-46
2023/07/27 05:16:35;;;;;;;3.70;3.50;;;;;;;20.22;100.00;98312.81;109176;1253;67993;-44
2023/07/27 05:19:03;;;;;;;3.40;3.20;;;;;;;20.21;100.00;98313.23;109132;1253;71804;-46
2023/07/27 05:21:30;;;;;;;3.30;2.20;;;;;;;20.23;100.00;98309.06;109149;1254;60358;-45
2023/07/27 05:23:57;;;;;;;2.80;2.50;;;;;;;20.23;100.00;98304.28;109215;1253;58772;-45
2023/07/27 05:26:24;;;;;;;3.40;3.20;;;;;;;20.22;100.00;98304.41;109206;1252;72518;-46
2023/07/27 05:28:52;;;;;;;2.70;2.60;;;;;;;20.22;100.00;98301.85;109128;1254;68153;-47
2023/07/27 05:31:19;;;;;;;2.60;2.50;;;;;;;20.23;100.00;98300.83;108938;1253;71430;-47
2023/07/27 05:33:46;;;;;;;2.60;2.50;;;;;;;20.27;100.00;98300.58;109158;1253;61757;-45
2023/07/27 05:36:14;;;;;;;2.90;2.80;;;;;;;20.27;100.00;98288.01;109170;1253;60030;-46
2023/07/27 05:38:41;;;;;;;3.10;2.90;;;;;;;20.25;100.00;98276.73;109121;1253;75068;-45
2023/07/27 05:41:09;;;;;;;3.20;3.10;;;;;;;20.27;100.00;98275.04;107013;1254;65328;-46
2023/07/27 05:43:36;;;;;;;3.20;3.10;;;;;;;20.30;100.00;98279.07;105056;1254;71181;-48
2023/07/27 05:46:03;;;;;;;3.50;3.30;;;;;;;20.35;100.00;98286.03;104850;1253;61612;-46
2023/07/27 05:48:31;;;;;;;2.80;2.70;;;;;;;20.41;100.00;98290.30;104871;1257;60654;-46
2023/07/27 05:50:58;;;;;;;3.90;3.70;;;;;;;20.46;100.00;98291.42;104978;1257;72608;-46
2023/07/27 05:53:26;;;;;;;4.00;3.60;;;;;;;20.52;100.00;98288.10;105085;1254;67891;-46
2023/07/27 05:55:53;;;;;;;3.70;3.40;;;;;;;20.57;100.00;98289.20;106361;1256;72898;-46
2023/07/27 05:58:21;;;;;;;3.80;3.60;;;;;;;20.63;100.00;98291.86;104956;1254;60670;-45
2023/07/27 06:01:03;;;;;;;4.20;4.00;;;;;;;20.68;100.00;98297.84;104976;1257;60428;-45
2023/07/27 06:03:31;;;;;;;4.10;3.90;;;;;;;20.73;100.00;98301.19;108241;1254;74741;-47
2023/07/27 06:05:58;;;;;;;3.50;3.30;;;;;;;20.78;100.00;98294.64;104891;1254;68016;-47
2023/07/27 06:08:27;;;;;;;3.30;3.10;;;;;;;20.84;100.00;98296.92;105046;1254;72671;-48
2023/07/27 06:11:06;;;;;;;3.80;3.50;;;;;;;20.89;100.00;98293.98;104731;1254;62139;-49
2023/07/27 06:13:33;;;;;;;2.80;2.50;;;;;;;20.92;100.00;98287.44;105217;1259;60309;-44
2023/07/27 06:16:01;;;;;;;3.50;3.20;;;;;;;20.93;100.00;98286.95;105128;1254;73897;-45
2023/07/27 06:18:30;;;;;;;3.20;3.00;;;;;;;20.94;100.00;98286.80;105199;1254;70279;-45
2023/07/27 06:20:57;;;;;;;2.40;2.30;;;;;;;20.96;100.00;98285.14;105203;1257;73192;-46
2023/07/27 06:23:25;;;;;;;2.00;1.90;;;;;;;20.97;100.00;98287.33;104946;1254;61615;-47
2023/07/27 06:25:53;;;;;;;2.60;2.40;;;;;;;20.99;100.00;98287.39;104803;1254;60543;-45
2023/07/27 06:28:21;;;;;;;2.40;2.30;;;;;;;20.98;100.00;98285.20;104677;1258;74276;-46
2023/07/27 06:30:48;;;;;;;2.10;2.00;;;;;;;20.99;100.00;98283.70;104806;1257;68089;-46
2023/07/27 06:33:15;;;;;;;2.50;2.40;;;;;;;21.00;100.00;98284.89;104711;1254;70806;-45
2023/07/27 06:35:43;;;;;;;2.20;2.10;;;;;;;21.01;100.00;98289.09;104922;1258;61622;-45
2023/07/27 06:38:10;;;;;;;1.90;1.80;;;;;;;21.01;100.00;98295.60;104866;1258;60376;-45
2023/07/27 06:40:38;;;;;;;2.00;1.90;;;;;;;21.01;100.00;98298.51;104677;1257;73821;-47
2023/07/27 06:43:05;;;;;;;1.30;1.20;;;;;;;21.02;100.00;98301.96;105066;1253;69512;-45
2023/07/27 06:45:34;;;;;;;0.80;0.80;;;;;;;21.01;100.00;98298.59;104983;1255;72643;-45
2023/07/27 06:48:02;;;;;;;2.20;0.80;;;;;;;21.00;100.00;98291.80;104700;1254;61666;-45
2023/07/27 06:50:30;;;;;;;0.60;0.60;;;;;;;20.98;100.00;98288.77;105178;1254;60508;-46
2023/07/27 06:52:57;;;;;;;1.30;0.60;;;;;;;20.96;100.00;98282.56;105149;1254;76505;-46
2023/07/27 06:55:25;;;;;;;0.60;0.60;;;;;;;20.95;100.00;98277.61;105077;1253;67665;-47
2023/07/27 06:57:55;;;;;;;0.50;0.50;;;;;;;20.94;100.00;98278.19;104781;1258;71454;-46
2023/07/27 07:00:23;;;;;;;0.50;0.50;;;;;;;20.96;100.00;98279.31;105339;1254;60521;-45
2023/07/27 07:02:50;;;;;;;0.50;0.50;;;;;;;20.97;100.00;98285.23;105247;1254;60460;-46
2023/07/27 07:05:18;;;;;;;0.50;0.50;;;;;;;20.98;100.00;98292.21;105082;1254;72565;-46
2023/07/27 07:07:45;;;;;;;0.70;0.50;;;;;;;21.00;100.00;98292.31;105436;1258;66278;-45
2023/07/27 07:10:13;;;;;;;0.50;0.50;;;;;;;21.02;100.00;98285.83;105934;1254;71963;-45
2023/07/27 07:12:41;;;;;;;0.40;0.40;;;;;;;21.06;100.00;98288.70;105733;1257;62079;-46
2023/07/27 07:15:08;;;;;;;0.50;0.50;;;;;;;21.10;100.00;98295.35;105125;1255;60556;-47
2023/07/27 07:17:36;;;;;;;5.00;0.50;;;;;;;21.14;100.00;98297.39;105285;1254;72579;-46
2023/07/27 07:20:08;;;;;;;0.40;0.40;;;;;;;21.19;100.00;98292.73;105408;1257;67989;-45
2023/07/27 07:22:36;;;;;;;0.80;0.50;;;;;;;21.24;100.00;98295.69;105355;1257;72638;-48
2023/07/27 07:25:04;;;;;;;0.50;0.50;;;;;;;21.27;100.00;98292.39;105025;1257;61691;-48
2023/07/27 07:27:31;;;;;;;0.70;0.50;;;;;;;21.29;100.00;98284.95;105209;1254;60556;-47
2023/07/27 07:29:59;;;;;;;0.60;0.60;;;;;;;21.32;100.00;98288.64;105191;1257;73865;-45
2023/07/27 07:32:26;;;;;;;0.40;0.40;;;;;;;21.35;100.00;98292.32;105068;1258;67090;-47
2023/07/27 07:34:54;;;;;;;0.60;0.60;;;;;;;21.37;100.00;98287.27;105163;1259;71756;-45
2023/07/27 07:37:21;;;;;;;0.50;0.50;;;;;;;21.40;100.00;98283.34;105298;1257;60595;-45
2023/07/27 07:39:49;;;;;;;0.70;0.60;;;;;;;21.43;100.00;98280.08;105021;1254;60402;-46
2023/07/27 07:42:16;;;;;;;0.50;0.50;;;;;;;21.45;100.00;98278.00;104981;1259;72833;-45
2023/07/27 07:44:43;;;;;;;0.90;0.50;;;;;;;21.45;100.00;98276.87;104928;1258;66279;-43
2023/07/27 07:47:11;;;;;;;1.80;0.90;;;;;;;21.45;100.00;98271.41;104890;1253;72830;-44
2023/07/27 07:49:38;;;;;;;0.40;0.40;;;;;;;21.46;100.00;98278.25;105193;1254;61638;-46
2023/07/27 07:52:06;;;;;;;0.50;0.50;;;;;;;21.47;100.00;98283.00;105171;1259;60460;-47
2023/07/27 07:54:33;;;;;;;0.60;0.50;;;;;;;21.49;100.00;98283.13;104832;1257;73806;-44
2023/07/27 07:57:00;;;;;;;2.10;0.60;;;;;;;21.51;100.00;98283.80;104940;1260;66780;-45
2023/07/27 07:59:28;;;;;;;0.50;0.50;;;;;;;21.53;100.00;98286.89;105244;1258;72492;-45
2023/07/27 08:01:55;;;;;;;1.20;0.60;;;;;;;21.54;100.00;98286.27;105056;1256;61597;-45
2023/07/27 08:04:23;;;;;;;0.60;0.50;;;;;;;21.54;100.00;98284.22;104954;1254;60364;-46
2023/07/27 08:06:50;;;;;;;2.40;0.60;;;;;;;21.55;100.00;98283.44;104961;1256;74065;-46
2023/07/27 08:09:17;;;;;;;0.50;0.50;;;;;;;21.56;100.00;98286.55;105271;1254;66910;-45
2023/07/27 08:11:45;;;;;;;1.10;0.60;;;;;;;21.59;100.00;98286.30;104974;1257;72429;-47
2023/07/27 08:14:13;;;;;;;0.60;0.50;;;;;;;21.60;100.00;98282.83;105114;1258;60526;-48
2023/07/27 08:16:40;;;;;;;1.60;0.60;;;;;;;21.62;100.00;98282.16;105166;1259;60497;-45
2023/07/27 08:19:07;;;;;;;1.10;0.60;;;;;;;21.65;100.00;98285.89;104998;1254;74265;-45
2023/07/27 08:21:35;;;;;;;0.70;0.50;;;;;;;21.68;100.00;98290.88;104998;1254;70321;-46
2023/07/27 08:24:02;;;;;;;0.80;0.60;;;;;;;21.69;100.00;98292.27;105054;1254;72665;-46
2023/07/27 08:26:30;;;;;;;0.50;0.50;;;;;;;21.69;100.00;98295.83;104930;1254;62117;-46
2023/07/27 08:28:58;;;;;;;0.70;0.50;;;;;;;21.68;100.00;98295.58;104917;1254;60553;-47
2023/07/27 08:31:25;;;;;;;0.70;0.50;;;;;;;21.67;100.00;98296.02;104895;1256;73848;-46
2023/07/27 08:33:54;;;;;;;0.50;0.50;;;;;;;21.65;100.00;98298.25;104812;1254;68002;-46
2023/07/27 08:36:21;;;;;;;0.40;0.40;;;;;;;21.62;100.00;98301.33;109101;1253;72219;-47
2023/07/27 08:38:48;;;;;;;0.80;0.40;;;;;;;21.59;100.00;98296.61;109171;1253;61554;-47
2023/07/27 08:41:16;;;;;;;0.60;0.50;;;;;;;21.57;100.00;98305.44;109071;1254;59913;-47
2023/07/27 08:43:43;;;;;;;0.40;0.40;;;;;;;21.58;100.00;98311.77;109145;1253;74306;-47
2023/07/27 08:46:10;;;;;;;1.30;0.50;;;;;;;21.59;100.00;98310.52;109091;1255;66280;-47
2023/07/27 08:48:38;;;;;;;0.60;0.40;;;;;;;21.63;100.00;98310.05;108997;1253;73222;-46
2023/07/27 08:51:05;;;;;;;2.10;0.40;;;;;;;21.67;100.00;98304.16;104758;1260;60534;-45
2023/07/27 08:53:32;;;;;;;0.70;0.40;;;;;;;21.70;100.00;98294.41;104767;1254;60463;-47
2023/07/27 08:56:00;;;;;;;1.70;0.50;;;;;;;21.76;100.00;98295.14;104961;1254;72673;-47
2023/07/27 08:58:27;;;;;;;0.60;0.40;;;;;;;21.81;100.00;98298.39;104873;1257;67633;-45
2023/07/27 09:00:55;;;;;;;0.40;0.40;;;;;;;21.83;100.00;98302.60;104634;1254;72657;-46
2023/07/27 09:03:22;;;;;;;0.40;0.40;;;;;;;21.81;100.00;98309.77;104705;1254;62151;-46
2023/07/27 09:06:00;;;;;;;0.60;0.60;;;;;;;21.78;100.00;98305.70;105037;1254;59602;-45
2023/07/27 09:08:28;;;;;;;0.60;0.60;;;;;;;21.76;100.00;98306.52;105155;1259;72144;-47
2023/07/27 09:11:06;;;;;;;0.60;0.60;;;;;;;21.77;100.00;98302.20;105016;1254;67872;-46
2023/07/27 09:13:34;;;;;;;2.30;1.00;;;;;;;21.79;100.00;98300.15;104851;1257;72450;-50
2023/07/27 09:16:02;;;;;;;1.70;1.00;;;;;;;21.80;100.00;98307.23;104824;1255;60425;-46
2023/07/27 09:18:37;;;;;;;1.10;1.10;;;;;;;21.79;100.00;98317.05;105309;1254;60337;-46
2023/07/27 09:21:08;;;;;;;2.90;1.30;;;;;;;21.79;100.00;98318.15;105904;1256;72556;-45
2023/07/27 09:23:37;;;;;;;1.40;1.20;;;;;;;21.80;100.00;98327.05;107825;1258;67918;-47
2023/07/27 09:26:05;;;;;;;1.40;1.10;;;;;;;21.78;100.00;98327.16;104975;1254;73252;-46
2023/07/27 09:28:33;;;;;;;3.60;1.40;;;;;;;21.77;100.00;98329.51;105464;1258;61712;-46
2023/07/27 09:31:02;;;;;;;1.30;1.20;;;;;;;21.77;100.00;98331.02;104892;1258;60504;-45
2023/07/27 09:33:30;;;;;;;1.70;1.60;;;;;;;21.77;100.00;98323.52;104681;1259;75012;-46
2023/07/27 09:35:58;;;;;;;1.30;1.20;;;;;;;21.78;100.00;98321.75;104879;1260;68227;-45
2023/07/27 09:38:26;;;;;;;1.50;1.40;;;;;;;21.79;100.00;98319.95;105036;1254;73405;-45
2023/07/27 09:40:54;;;;;;;1.50;1.30;;;;;;;21.81;100.00;98321.27;105326;1255;61648;-48
2023/07/27 09:43:24;;;;;;;2.30;1.40;;;;;;;21.83;100.00;98322.14;104918;1258;60450;-45
2023/07/27 09:45:56;;;;;;;1.60;1.50;;;;;;;21.89;100.00;98321.39;105046;1254;60458;-46
2023/07/27 09:48:24;;;;;;;1.30;1.10;;;;;;;21.95;100.00;98316.16;105751;1257;66645;-47
2023/07/27 09:50:55;;;;;;;1.30;1.20;;;;;;;22.01;100.00;98303.58;105950;1254;71395;-49
2023/07/27 09:53:22;;;;;;;1.70;1.60;;;;;;;22.11;100.00;98294.91;104880;1254;61606;-46
2023/07/27 09:55:50;;;;;;;2.00;1.80;;;;;;;22.21;100.00;98297.86;105025;1254;61106;-47
2023/07/27 09:58:18;;;;;;;1.80;1.70;;;;;;;22.31;100.00;98301.52;105122;1258;73836;-47
2023/07/27 10:00:46;;;;;;;2.00;1.90;;;;;;;22.37;100.00;98301.42;104975;1257;67539;-48
2023/07/27 10:03:14;;;;;;;2.80;2.00;;;;;;;22.47;100.00;98307.01;105075;1257;73092;-46
2023/07/27 10:05:41;;;;;;;1.60;1.50;;;;;;;22.53;100.00;98318.65;105762;1254;60549;-44
2023/07/27 10:08:09;;;;;;;1.70;1.50;;;;;;;22.54;100.00;98334.42;108196;1259;60628;-46
2023/07/27 10:10:39;;;;;;;3.30;1.50;;;;;;;22.48;100.00;98339.55;105205;1252;73873;-47
2023/07/27 10:13:11;;;;;;;1.60;1.50;;;;;;;22.34;100.00;98344.14;105518;1257;67545;-45
2023/07/27 10:15:41;;;;;;;1.80;1.50;;;;;;;22.18;100.00;98356.66;105235;1257;72711;-46
2023/07/27 10:18:12;;;;;;;1.50;1.20;;;;;;;22.04;100.00;98370.27;105483;1257;60592;-47
2023/07/27 10:20:39;;;;;;;3.30;1.20;;;;;;;21.95;100.00;98369.48;106381;1259;60834;-45
2023/07/27 10:23:11;;;;;;;1.30;1.20;;;;;;;21.92;100.00;98364.02;105335;1254;74004;-46
2023/07/27 10:25:56;;;;;;;1.80;1.30;;;;;;;21.93;100.00;98362.91;105146;1254;67916;-47
2023/07/27 10:28:37;;;;;;;1.30;1.20;;;;;;;21.99;100.00;98369.00;105115;1260;71464;-46
2023/07/27 10:31:14;;;;;;;4.40;1.10;;;;;;;22.06;100.00;98367.83;105152;1259;60372;-45
2023/07/27 10:33:46;;;;;;;1.10;1.00;;;;;;;22.10;100.00;98372.98;105566;1254;60529;-46
2023/07/27 10:36:15;;;;;;;1.10;0.90;;;;;;;22.10;100.00;98382.52;105332;1260;73844;-44
2023/07/27 10:38:55;;;;;;;0.90;0.90;;;;;;;22.08;100.00;98387.23;105552;1256;66296;-45
2023/07/27 10:41:24;;;;;;;0.90;0.90;;;;;;;22.00;100.00;98383.89;105342;1257;72658;-47
2023/07/27 10:44:07;;;;;;;0.90;0.80;;;;;;;21.89;100.00;98387.45;105041;1257;60553;-47
2023/07/27 10:46:38;;;;;;;0.90;0.90;;;;;;;21.74;100.00;98393.18;106397;1253;59946;-48
2023/07/27 10:49:15;;;;;;;1.90;0.80;;;;;;;21.60;100.00;98396.70;104968;1259;74234;-48
2023/07/27 10:51:54;;;;;;;1.20;0.70;;;;;;;21.48;100.00;98401.90;109050;1254;68097;-49
2023/07/27 10:54:24;;;;;;;0.60;0.60;;;;;;;21.43;100.00;98395.01;109057;1254;72705;-46
2023/07/27 10:56:52;;;;;;;0.60;0.60;;;;;;;21.41;100.00;98395.88;109078;1258;60388;-45
2023/07/27 10:59:19;;;;;;;0.70;0.60;;;;;;;21.40;100.00;98400.12;108939;1254;58778;-45
2023/07/27 11:01:47;;;;;;;0.50;0.50;;;;;;;21.37;100.00;98401.96;108864;1253;73758;-44
2023/07/27 11:04:15;;;;;;;0.70;0.40;;;;;;;21.28;100.00;98405.64;105100;1256;67544;-45
2023/07/27 11:06:43;;;;;;;0.40;0.40;;;;;;;21.21;100.00;98405.59;107642;1258;74821;-45
2023/07/27 11:09:12;;;;;;;0.30;0.30;;;;;;;21.15;100.00;98399.42;105190;1257;61650;-45
2023/07/27 11:11:39;;;;;;;0.40;0.40;;;;;;;21.13;100.00;98395.65;106021;1259;60553;-46
2023/07/27 11:14:07;;;;;;;0.30;0.30;;;;;;;21.13;100.00;98402.05;105174;1257;73960;-45
2023/07/27 11:16:37;;;;;;;0.40;0.40;;;;;;;21.17;100.00;98404.55;105152;1259;66666;-46
2023/07/27 11:19:07;;;;;;;3.80;0.50;;;;;;;21.24;100.00;98403.68;108014;1254;72666;-45
2023/07/27 11:24:02;;;;;;;0.60;0.60;;;;;;;21.31;100.00;98428.86;102116;1289;600311;-47
2023/07/27 11:26:30;;;;;;;0.50;0.50;;;;;;;21.30;100.00;98448.52;108348;1266;60076;-46